Time;durP1;ratioP1;P1;durP2;ratioP2;P2;SDS_P1;SDS_P2;PMS_P1;PMS_P2;Temp;Humidity;BMP_temperature;BMP_pressure;BME280_temperature;BME280_humidity;BME280_pressure;Samples;Min_cycle;Max_cycle;Signal;HPM_P1;HPM_P2
2022/01/25 00:26:36;;;;;;;;;;;18.40;44.20;;;;;;5084600;28;42964;-76
2022/01/25 00:29:15;;;;;;;;;;;18.40;44.20;;;;;;5084692;27;43589;-75
2022/01/25 00:31:41;;;;;;;;;;;18.40;44.20;;;;;;5084948;27;43616;-75
2022/01/25 00:34:07;;;;;;;;;;;18.30;44.10;;;;;;5084677;27;43284;-75
2022/01/25 00:36:33;;;;;;;;;;;18.40;44.10;;;;;;5084452;28;42909;-75
2022/01/25 00:38:59;;;;;;;;;;;18.40;44.10;;;;;;5084292;27;43438;-75
2022/01/25 00:41:25;;;;;;;;;;;18.40;44.10;;;;;;5085250;27;42838;-75
2022/01/25 00:43:51;;;;;;;;;;;18.40;44.10;;;;;;5084955;27;43673;-75
2022/01/25 00:46:19;;;;;;;;;;;18.40;44.10;;;;;;5082827;28;42932;-75
2022/01/25 00:48:48;;;;;;;;;;;18.40;44.70;;;;;;5084237;27;44009;-75
2022/01/25 00:53:59;;;;;;;;;;;18.40;44.10;;;;;;5084177;27;42914;-75
2022/01/25 00:56:32;;;;;;;;;;;18.40;44.10;;;;;;5084327;27;42957;-76
2022/01/25 00:58:59;;;;;;;;;;;18.40;44.10;;;;;;5084251;28;43013;-75
2022/01/25 01:01:26;;;;;;;;;;;18.40;44.10;;;;;;5084257;28;42955;-75
2022/01/25 01:03:51;;;;;;;;;;;18.30;44.00;;;;;;5083975;27;42978;-75
2022/01/25 01:06:17;;;;;;;;;;;18.40;44.20;;;;;;5084819;27;42802;-75
2022/01/25 01:08:43;;;;;;;;;;;18.40;44.10;;;;;;5084255;27;43339;-75
2022/01/25 01:11:14;;;;;;;;;;;18.30;44.10;;;;;;5084752;27;43041;-76
2022/01/25 01:13:57;;;;;;;;;;;18.30;44.10;;;;;;5084179;27;42959;-75
2022/01/25 01:45:44;;;;;;;;;;;18.30;44.00;;;;;;5083610;27;42964;-76
2022/01/25 01:48:15;;;;;;;;;;;18.30;44.10;;;;;;5083984;27;42873;-75
2022/01/25 01:50:40;;;;;;;;;;;18.30;44.00;;;;;;5082823;27;43605;-75
2022/01/25 01:53:07;;;;;;;;;;;18.30;44.10;;;;;;5083876;27;42869;-75
2022/01/25 01:55:33;;;;;;;;;;;18.30;44.00;;;;;;5083968;27;43936;-76
2022/01/25 01:57:58;;;;;;;;;;;18.30;44.60;;;;;;5084517;27;42760;-75
2022/01/25 02:00:43;;;;;;;;;;;18.30;44.00;;;;;;5084050;28;43452;-75
2022/01/25 02:03:09;;;;;;;;;;;18.30;44.10;;;;;;5083938;27;42820;-75
2022/01/25 02:05:34;;;;;;;;;;;18.30;44.10;;;;;;5082743;27;44386;-75
2022/01/25 02:08:00;;;;;;;;;;;18.30;44.10;;;;;;5083774;28;42897;-75
2022/01/25 02:10:26;;;;;;;;;;;18.30;44.10;;;;;;5082845;27;43613;-76
2022/01/25 02:12:52;;;;;;;;;;;18.30;44.00;;;;;;5082734;27;43151;-75
2022/01/25 02:15:19;;;;;;;;;;;18.30;44.10;;;;;;5082875;27;43737;-75
2022/01/25 02:23:11;;;;;;;;;;;18.30;44.00;;;;;;5084246;28;43019;-75
2022/01/25 02:25:37;;;;;;;;;;;18.40;43.90;;;;;;5084495;27;43044;-75
2022/01/25 02:28:02;;;;;;;;;;;18.30;43.80;;;;;;5086922;28;42868;-76
2022/01/25 02:30:28;;;;;;;;;;;18.40;43.80;;;;;;5086920;27;42847;-75
2022/01/25 02:32:54;;;;;;;;;;;18.30;43.70;;;;;;5086824;28;42853;-76
2022/01/25 02:35:19;;;;;;;;;;;18.30;43.90;;;;;;5086570;27;43350;-75
2022/01/25 02:37:45;;;;;;;;;;;18.30;43.70;;;;;;5086204;28;43018;-76
2022/01/25 02:40:10;;;;;;;;;;;18.40;43.80;;;;;;5086717;28;42909;-75
2022/01/25 02:42:36;;;;;;;;;;;18.40;43.90;;;;;;5086687;28;42899;-75
2022/01/25 02:45:02;;;;;;;;;;;18.30;43.80;;;;;;5086800;27;42757;-75
2022/01/25 02:50:12;;;;;;;;;;;18.30;43.80;;;;;;5086640;28;43536;-75
2022/01/25 02:52:37;;;;;;;;;;;18.30;43.80;;;;;;5086524;27;43240;-75
2022/01/25 02:55:03;;;;;;;;;;;18.30;43.80;;;;;;5086473;27;43999;-75
2022/01/25 02:57:29;;;;;;;;;;;18.30;43.80;;;;;;5086060;27;43009;-75
2022/01/25 02:59:54;;;;;;;;;;;18.30;43.80;;;;;;5086516;27;43062;-75
2022/01/25 03:02:20;;;;;;;;;;;18.30;43.80;;;;;;5086646;27;43003;-75
2022/01/25 03:04:45;;;;;;;;;;;18.30;43.80;;;;;;5086526;27;43442;-75
2022/01/25 03:07:11;;;;;;;;;;;18.30;43.80;;;;;;5086198;28;43080;-74
2022/01/25 03:09:39;;;;;;;;;;;18.30;43.80;;;;;;5086124;28;43405;-75
2022/01/25 03:12:06;;;;;;;;;;;18.30;43.80;;;;;;5085287;27;42856;-75
2022/01/25 03:14:35;;;;;;;;;;;18.30;43.80;;;;;;5085781;28;43472;-75
2022/01/25 03:19:45;;;;;;;;;;;18.30;43.80;;;;;;5085716;27;42986;-75
2022/01/25 03:24:56;;;;;;;;;;;18.30;43.80;;;;;;5065419;28;43086;-76
2022/01/25 03:27:21;;;;;;;;;;;18.20;43.70;;;;;;5065890;28;43069;-75
2022/01/25 03:29:47;;;;;;;;;;;18.20;43.80;;;;;;5065481;28;42925;-74
2022/01/25 03:32:12;;;;;;;;;;;18.20;43.80;;;;;;5065463;28;42967;-75
2022/01/25 03:34:38;;;;;;;;;;;18.20;43.80;;;;;;5065357;28;43509;-75
2022/01/25 03:37:03;;;;;;;;;;;18.20;43.80;;;;;;5065838;28;42974;-75
2022/01/25 03:39:29;;;;;;;;;;;18.20;43.70;;;;;;5065392;28;42875;-75
2022/01/25 03:41:55;;;;;;;;;;;18.20;43.70;;;;;;5065569;28;42777;-75
2022/01/25 03:44:20;;;;;;;;;;;18.20;43.80;;;;;;5065340;28;42933;-75
2022/01/25 03:51:59;;;;;;;;;;;18.20;43.80;;;;;;5065073;28;42905;-75
2022/01/25 03:54:24;;;;;;;;;;;18.20;43.80;;;;;;5064844;28;43167;-75
2022/01/25 03:56:50;;;;;;;;;;;18.20;43.80;;;;;;5064812;28;42978;-76
2022/01/25 03:59:15;;;;;;;;;;;18.20;43.80;;;;;;5065343;28;43015;-75
2022/01/25 04:01:41;;;;;;;;;;;18.20;43.80;;;;;;5065119;28;43011;-75
2022/01/25 04:04:11;;;;;;;;;;;18.20;43.80;;;;;;5065243;28;43016;-75
2022/01/25 04:06:37;;;;;;;;;;;18.20;43.80;;;;;;5065099;28;42689;-75
2022/01/25 04:09:05;;;;;;;;;;;18.20;43.80;;;;;;5064891;28;42834;-76
2022/01/25 04:11:31;;;;;;;;;;;18.20;43.80;;;;;;5065685;27;42957;-75
2022/01/25 04:13:58;;;;;;;;;;;18.20;43.80;;;;;;5065660;27;42992;-75
2022/01/25 04:16:29;;;;;;;;;;;18.20;43.80;;;;;;5064006;28;43597;-75
2022/01/25 04:19:02;;;;;;;;;;;18.20;43.80;;;;;;5064220;28;43868;-75
2022/01/25 04:26:47;;;;;;;;;;;18.20;43.80;;;;;;5065252;28;42882;-75
2022/01/25 04:29:12;;;;;;;;;;;18.20;43.80;;;;;;5082554;28;43716;-75
2022/01/25 04:31:38;;;;;;;;;;;18.10;43.70;;;;;;5084375;27;43213;-74
2022/01/25 04:50:22;;;;;;;;;;;18.10;43.80;;;;;;5083475;28;42896;-75
2022/01/25 04:52:58;;;;;;;;;;;18.10;43.80;;;;;;5082967;27;43005;-76
2022/01/25 04:55:32;;;;;;;;;;;18.10;43.80;;;;;;5083157;28;43335;-76
2022/01/25 04:58:05;;;;;;;;;;;18.10;43.80;;;;;;5083388;27;43077;-75
2022/01/25 05:00:32;;;;;;;;;;;18.10;43.80;;;;;;5082853;27;43107;-76
2022/01/25 05:03:17;;;;;;;;;;;18.10;43.80;;;;;;5083479;27;42916;-76
2022/01/25 05:08:30;;;;;;;;;;;18.10;43.80;;;;;;5083159;27;43037;-76
2022/01/25 05:11:06;;;;;;;;;;;18.10;43.80;;;;;;5082829;27;43642;-76
2022/01/25 05:13:53;;;;;;;;;;;18.10;43.80;;;;;;5082427;27;43023;-76
2022/01/25 05:19:03;;;;;;;;;;;18.10;43.80;;;;;;5066654;28;43126;-76
2022/01/25 05:24:13;;;;;;;;;;;18.10;43.80;;;;;;5083701;28;42959;-75
2022/01/25 05:26:39;;;;;;;;;;;18.10;43.80;;;;;;5083079;28;44017;-76
2022/01/25 05:29:04;;;;;;;;;;;18.10;43.80;;;;;;5083734;27;43002;-75
2022/01/25 05:31:30;;;;;;;;;;;18.10;43.80;;;;;;5083253;28;43528;-75
2022/01/25 05:33:55;;;;;;;;;;;18.10;43.80;;;;;;5084178;27;43007;-76
2022/01/25 05:36:21;;;;;;;;;;;18.10;43.90;;;;;;5097988;27;43285;-77
2022/01/25 05:38:47;;;;;;;;;;;18.10;43.80;;;;;;5095575;27;43110;-76
2022/01/25 05:41:14;;;;;;;;;;;18.10;43.80;;;;;;5091106;27;42957;-76
2022/01/25 05:46:32;;;;;;;;;;;18.10;43.90;;;;;;5080734;27;42848;-76
2022/01/25 05:48:57;;;;;;;;;;;18.10;43.90;;;;;;5082098;27;43260;-75
2022/01/25 05:51:23;;;;;;;;;;;18.10;43.90;;;;;;5077088;27;43803;-75
2022/01/25 05:53:48;;;;;;;;;;;18.10;43.90;;;;;;5076832;27;43069;-76
2022/01/25 05:56:16;;;;;;;;;;;18.10;43.90;;;;;;5075581;28;43090;-76
2022/01/25 05:58:42;;;;;;;;;;;18.00;43.80;;;;;;5077389;27;43092;-76
2022/01/25 06:01:07;;;;;;;;;;;18.10;43.90;;;;;;5081841;27;43607;-75
2022/01/25 06:03:33;;;;;;;;;;;18.00;43.80;;;;;;5081944;27;42916;-75
2022/01/25 06:05:59;;;;;;;;;;;18.10;43.90;;;;;;5077983;28;42904;-76
2022/01/25 06:08:24;;;;;;;;;;;18.00;43.90;;;;;;5086663;27;42940;-75
2022/01/25 06:10:50;;;;;;;;;;;18.00;43.90;;;;;;5079509;28;42912;-75
2022/01/25 06:13:16;;;;;;;;;;;18.00;43.90;;;;;;5081271;28;42994;-76
2022/01/25 06:15:41;;;;;;;;;;;18.10;43.90;;;;;;5082352;28;43453;-75
2022/01/25 06:18:07;;;;;;;;;;;18.10;43.90;;;;;;5082948;27;43050;-76
2022/01/25 06:20:33;;;;;;;;;;;18.00;43.80;;;;;;5081704;28;42895;-77
2022/01/25 06:22:59;;;;;;;;;;;18.10;43.90;;;;;;5074871;28;42929;-75
2022/01/25 06:25:25;;;;;;;;;;;18.00;43.90;;;;;;5079975;28;43677;-75
2022/01/25 06:27:50;;;;;;;;;;;18.10;43.90;;;;;;5077702;28;43072;-75
2022/01/25 06:30:17;;;;;;;;;;;18.00;43.90;;;;;;5081068;28;43543;-76
2022/01/25 06:32:44;;;;;;;;;;;18.00;43.90;;;;;;5081218;28;43368;-75
2022/01/25 06:35:10;;;;;;;;;;;18.20;43.80;;;;;;5083543;27;45199;-76
2022/01/25 06:37:36;;;;;;;;;;;18.00;42.00;;;;;;5085344;28;43181;-76
2022/01/25 06:40:02;;;;;;;;;;;17.90;41.90;;;;;;5087131;27;43769;-75
2022/01/25 06:42:30;;;;;;;;;;;17.90;41.90;;;;;;5086472;27;44327;-75
2022/01/25 06:45:00;;;;;;;;;;;17.90;42.00;;;;;;5086492;27;42949;-75
2022/01/25 06:47:25;;;;;;;;;;;17.80;42.00;;;;;;5086896;27;42809;-74
2022/01/25 06:49:51;;;;;;;;;;;17.80;43.40;;;;;;5084862;28;42942;-75
2022/01/25 06:52:16;;;;;;;;;;;17.80;42.40;;;;;;5082721;28;42925;-75
2022/01/25 06:54:44;;;;;;;;;;;17.90;41.10;;;;;;5082826;27;42988;-76
2022/01/25 06:57:10;;;;;;;;;;;17.90;43.50;;;;;;5086354;27;43010;-78
2022/01/25 06:59:36;;;;;;;;;;;17.90;41.40;;;;;;5086402;27;43917;-75
2022/01/25 07:02:02;;;;;;;;;;;17.60;40.40;;;;;;5087047;27;42888;-76
2022/01/25 07:04:27;;;;;;;;;;;17.50;41.70;;;;;;5076288;28;42971;-75
2022/01/25 07:06:53;;;;;;;;;;;17.50;43.30;;;;;;5084890;27;42922;-76
2022/01/25 07:09:18;;;;;;;;;;;17.50;39.30;;;;;;5078949;27;43153;-76
2022/01/25 07:11:44;;;;;;;;;;;17.20;38.60;;;;;;5076864;28;43036;-76
2022/01/25 07:14:09;;;;;;;;;;;16.90;38.80;;;;;;5083460;28;43503;-76
2022/01/25 07:16:35;;;;;;;;;;;16.60;39.50;;;;;;5084589;28;42825;-75
2022/01/25 07:19:00;;;;;;;;;;;16.40;39.40;;;;;;5085153;28;43800;-76
2022/01/25 07:21:26;;;;;;;;;;;16.30;39.30;;;;;;5082458;28;42945;-76
2022/01/25 07:23:52;;;;;;;;;;;16.20;39.60;;;;;;5085493;27;42931;-76
2022/01/25 07:26:17;;;;;;;;;;;16.20;39.60;;;;;;5085247;28;43233;-76
2022/01/25 07:28:43;;;;;;;;;;;16.20;39.60;;;;;;5083764;27;43810;-76
2022/01/25 07:31:09;;;;;;;;;;;16.10;39.40;;;;;;5085284;27;43008;-77
2022/01/25 07:33:34;;;;;;;;;;;16.00;39.20;;;;;;5086351;28;43008;-76
2022/01/25 07:36:00;;;;;;;;;;;15.90;39.50;;;;;;5082241;27;43079;-76
2022/01/25 07:38:26;;;;;;;;;;;15.80;39.40;;;;;;5079699;28;43014;-79
2022/01/25 07:40:52;;;;;;;;;;;15.70;39.60;;;;;;5085825;27;42978;-77
2022/01/25 07:43:17;;;;;;;;;;;15.70;39.70;;;;;;5080450;27;44318;-77
2022/01/25 07:45:49;;;;;;;;;;;15.70;40.40;;;;;;5085353;27;43022;-76
2022/01/25 07:48:15;;;;;;;;;;;15.80;40.30;;;;;;5084917;27;43015;-76
2022/01/25 07:50:41;;;;;;;;;;;15.90;39.90;;;;;;5074362;27;43023;-75
2022/01/25 07:53:06;;;;;;;;;;;15.80;39.60;;;;;;5086307;27;42869;-75
2022/01/25 07:55:32;;;;;;;;;;;15.90;39.50;;;;;;5085702;28;42868;-76
2022/01/25 07:57:58;;;;;;;;;;;15.90;39.40;;;;;;5081432;27;43043;-76
2022/01/25 08:00:23;;;;;;;;;;;15.80;39.30;;;;;;5075810;28;42923;-75
2022/01/25 08:02:49;;;;;;;;;;;15.80;39.20;;;;;;5072812;27;42965;-75
2022/01/25 08:05:16;;;;;;;;;;;15.80;39.20;;;;;;5072700;28;43068;-75
2022/01/25 08:07:41;;;;;;;;;;;15.60;38.60;;;;;;5075727;27;43712;-76
2022/01/25 08:10:07;;;;;;;;;;;14.80;39.90;;;;;;5084414;28;42955;-76
2022/01/25 08:12:32;;;;;;;;;;;14.20;40.70;;;;;;5082367;27;43515;-77
2022/01/25 08:15:00;;;;;;;;;;;14.10;40.50;;;;;;5077775;28;42971;-77
2022/01/25 08:17:27;;;;;;;;;;;13.90;41.20;;;;;;5075422;28;63736;-74
2022/01/25 08:19:53;;;;;;;;;;;13.50;41.40;;;;;;5075167;28;43000;-75
2022/01/25 08:22:18;;;;;;;;;;;13.30;42.00;;;;;;5073736;27;43008;-78
2022/01/25 08:24:44;;;;;;;;;;;13.30;42.00;;;;;;5081715;28;43572;-76
2022/01/25 08:27:11;;;;;;;;;;;13.20;42.30;;;;;;5075951;28;43081;-76
2022/01/25 08:29:37;;;;;;;;;;;13.20;42.60;;;;;;5073591;28;42961;-74
2022/01/25 08:32:03;;;;;;;;;;;13.50;41.90;;;;;;5076791;28;42991;-75
2022/01/25 08:34:28;;;;;;;;;;;13.30;42.30;;;;;;5076023;28;43028;-75
2022/01/25 08:36:55;;;;;;;;;;;13.10;43.20;;;;;;5080237;27;43060;-74
2022/01/25 08:39:21;;;;;;;;;;;13.20;43.00;;;;;;5077606;27;42961;-73
2022/01/25 08:41:46;;;;;;;;;;;13.10;43.10;;;;;;5075647;28;43620;-75
2022/01/25 08:44:12;;;;;;;;;;;13.20;43.00;;;;;;5078299;28;43054;-74
2022/01/25 08:46:39;;;;;;;;;;;13.10;43.10;;;;;;5085275;28;43952;-76
2022/01/25 08:49:05;;;;;;;;;;;13.40;43.00;;;;;;5084891;27;42894;-74
2022/01/25 08:51:30;;;;;;;;;;;13.40;42.80;;;;;;5082398;27;43446;-75
2022/01/25 08:53:56;;;;;;;;;;;13.50;42.70;;;;;;5076619;28;42880;-74
2022/01/25 08:56:21;;;;;;;;;;;13.80;42.20;;;;;;5076782;28;43001;-74
2022/01/25 08:58:47;;;;;;;;;;;13.40;42.40;;;;;;5082042;28;43040;-74
2022/01/25 09:01:12;;;;;;;;;;;13.40;42.90;;;;;;5076266;27;43246;-75
2022/01/25 09:03:38;;;;;;;;;;;13.70;41.90;;;;;;5078310;28;42920;-77
2022/01/25 09:06:04;;;;;;;;;;;14.10;41.40;;;;;;5084544;28;42901;-74
2022/01/25 09:08:29;;;;;;;;;;;14.10;41.30;;;;;;5080915;27;43477;-76
2022/01/25 09:10:59;;;;;;;;;;;14.10;41.40;;;;;;5073399;28;42931;-76
2022/01/25 09:13:25;;;;;;;;;;;13.70;41.80;;;;;;5076740;28;43847;-74
2022/01/25 09:15:50;;;;;;;;;;;13.90;41.90;;;;;;5073469;28;43048;-74
2022/01/25 09:18:17;;;;;;;;;;;13.90;41.70;;;;;;5074546;27;42974;-75
2022/01/25 09:20:42;;;;;;;;;;;13.60;42.30;;;;;;5075292;28;43716;-75
2022/01/25 09:23:08;;;;;;;;;;;13.10;43.10;;;;;;5074240;28;43076;-75
2022/01/25 09:25:34;;;;;;;;;;;13.20;43.30;;;;;;5074695;28;43959;-74
2022/01/25 09:28:00;;;;;;;;;;;13.60;42.60;;;;;;5079222;28;42916;-73
2022/01/25 09:30:26;;;;;;;;;;;13.90;42.00;;;;;;5083984;27;42922;-74
2022/01/25 09:32:51;;;;;;;;;;;14.10;41.50;;;;;;5084653;27;43045;-74
2022/01/25 09:35:17;;;;;;;;;;;14.10;41.40;;;;;;5086361;27;43725;-74
2022/01/25 09:37:43;;;;;;;;;;;13.90;41.90;;;;;;5088502;27;43053;-73
2022/01/25 09:40:09;;;;;;;;;;;13.90;41.90;;;;;;5088018;28;43025;-75
2022/01/25 09:42:35;;;;;;;;;;;14.10;41.60;;;;;;5088826;27;42963;-73
2022/01/25 09:45:01;;;;;;;;;;;14.00;41.70;;;;;;5088527;27;43347;-73
2022/01/25 09:47:26;;;;;;;;;;;14.10;41.50;;;;;;5089197;28;42947;-76
2022/01/25 09:49:52;;;;;;;;;;;14.10;41.70;;;;;;5089184;27;42939;-77
2022/01/25 09:52:18;;;;;;;;;;;14.00;41.90;;;;;;5089008;27;42922;-76
2022/01/25 09:54:51;;;;;;;;;;;14.20;41.80;;;;;;5088448;28;42920;-74
2022/01/25 09:57:17;;;;;;;;;;;14.20;41.50;;;;;;5088588;27;42746;-74
2022/01/25 09:59:42;;;;;;;;;;;14.30;41.40;;;;;;5088737;27;43664;-73
2022/01/25 10:02:08;;;;;;;;;;;14.30;41.40;;;;;;5088622;28;42836;-73
2022/01/25 10:04:37;;;;;;;;;;;14.30;41.80;;;;;;5088209;28;43400;-74
2022/01/25 10:07:04;;;;;;;;;;;14.40;42.00;;;;;;5086837;28;43082;-75
2022/01/25 10:09:31;;;;;;;;;;;14.10;42.60;;;;;;5086994;28;44303;-77
2022/01/25 10:11:56;;;;;;;;;;;13.70;43.60;;;;;;5088598;27;42764;-77
2022/01/25 10:14:23;;;;;;;;;;;13.40;44.40;;;;;;5089015;28;43303;-75
2022/01/25 10:16:53;;;;;;;;;;;13.50;44.10;;;;;;5089573;27;42963;-76
2022/01/25 10:19:22;;;;;;;;;;;13.60;43.80;;;;;;5087782;27;42901;-75
2022/01/25 10:21:51;;;;;;;;;;;13.50;44.10;;;;;;5087560;27;43026;-77
2022/01/25 10:24:21;;;;;;;;;;;13.60;43.80;;;;;;5087813;27;43956;-78
2022/01/25 10:26:46;;;;;;;;;;;13.70;43.70;;;;;;5088158;28;42975;-76
2022/01/25 10:29:19;;;;;;;;;;;14.00;43.10;;;;;;5088456;28;43567;-76
2022/01/25 10:31:46;;;;;;;;;;;14.20;42.70;;;;;;5088361;27;42913;-77
2022/01/25 10:34:13;;;;;;;;;;;14.10;42.90;;;;;;5087494;27;43522;-76
2022/01/25 10:36:42;;;;;;;;;;;13.90;43.60;;;;;;5088242;28;42861;-77
2022/01/25 10:39:08;;;;;;;;;;;13.80;44.20;;;;;;5087838;28;43585;-77
2022/01/25 10:41:34;;;;;;;;;;;14.00;43.10;;;;;;5089907;28;42938;-77
2022/01/25 10:44:00;;;;;;;;;;;14.10;43.00;;;;;;5088604;28;43483;-76
2022/01/25 10:46:27;;;;;;;;;;;13.70;44.10;;;;;;5088911;27;42981;-76
2022/01/25 10:48:53;;;;;;;;;;;13.90;43.60;;;;;;5087786;27;43055;-79
2022/01/25 10:51:23;;;;;;;;;;;13.90;43.50;;;;;;5087815;27;42970;-76
2022/01/25 10:54:08;;;;;;;;;;;14.10;43.20;;;;;;5087409;27;43905;-77
2022/01/25 10:56:39;;;;;;;;;;;14.10;43.30;;;;;;5087512;28;42959;-77
2022/01/25 10:59:06;;;;;;;;;;;14.10;43.10;;;;;;5088972;28;43018;-78
2022/01/25 11:01:33;;;;;;;;;;;14.00;43.40;;;;;;5088264;27;43013;-75
2022/01/25 11:04:09;;;;;;;;;;;13.90;43.10;;;;;;5087832;28;43754;-76
2022/01/25 11:06:35;;;;;;;;;;;13.70;43.40;;;;;;5087878;27;42978;-76
2022/01/25 11:09:04;;;;;;;;;;;13.80;43.60;;;;;;5087615;27;43449;-76
2022/01/25 11:11:34;;;;;;;;;;;13.80;43.80;;;;;;5086094;28;43071;-77
2022/01/25 11:14:50;;;;;;;;;;;14.00;43.50;;;;;;5087397;27;43059;-78
2022/01/25 11:16:48;;;;;;;;;;;14.00;43.40;;;;;;5087986;27;42982;-77
2022/01/25 11:19:14;;;;;;;;;;;14.10;43.20;;;;;;5086682;27;43192;-76
2022/01/25 11:21:41;;;;;;;;;;;14.00;43.40;;;;;;5086933;27;43014;-78
2022/01/25 11:24:07;;;;;;;;;;;13.80;43.70;;;;;;5086667;27;43774;-75
2022/01/25 11:26:33;;;;;;;;;;;13.60;44.10;;;;;;5086986;27;42921;-77
2022/01/25 11:28:59;;;;;;;;;;;13.80;44.00;;;;;;5086869;27;43405;-74
2022/01/25 11:31:24;;;;;;;;;;;13.90;44.00;;;;;;5087193;27;42995;-77
2022/01/25 11:33:51;;;;;;;;;;;13.80;44.00;;;;;;5086974;28;42872;-75
2022/01/25 11:36:17;;;;;;;;;;;13.90;43.60;;;;;;5086681;27;43050;-77
2022/01/25 11:38:45;;;;;;;;;;;13.90;43.80;;;;;;5086576;27;42921;-73
2022/01/25 11:41:12;;;;;;;;;;;14.00;43.90;;;;;;5079159;27;42895;-75
2022/01/25 11:43:38;;;;;;;;;;;13.50;45.00;;;;;;5066285;28;42973;-74
2022/01/25 11:46:05;;;;;;;;;;;13.30;46.00;;;;;;5066520;28;42842;-73
2022/01/25 11:48:38;;;;;;;;;;;13.40;45.40;;;;;;5066456;28;43412;-76
2022/01/25 11:51:06;;;;;;;;;;;13.40;45.60;;;;;;5071865;28;43054;-73
2022/01/25 11:53:31;;;;;;;;;;;13.70;45.00;;;;;;5085048;27;43571;-73
2022/01/25 11:55:57;;;;;;;;;;;14.20;44.30;;;;;;5081625;28;43353;-74
2022/01/25 11:58:30;;;;;;;;;;;14.40;43.80;;;;;;5084097;27;43004;-73
2022/01/25 12:01:02;;;;;;;;;;;14.60;43.50;;;;;;5084909;27;43022;-73
2022/01/25 12:03:34;;;;;;;;;;;14.80;43.00;;;;;;5085150;27;43560;-73
2022/01/25 12:06:02;;;;;;;;;;;14.90;42.90;;;;;;5082237;28;42879;-74
2022/01/25 12:08:38;;;;;;;;;;;15.00;42.90;;;;;;5085416;28;44127;-74
2022/01/25 12:11:33;;;;;;;;;;;15.10;42.80;;;;;;5082817;28;43021;-74
2022/01/25 12:14:14;;;;;;;;;;;15.10;42.90;;;;;;5067443;27;43636;-74
2022/01/25 12:16:44;;;;;;;;;;;15.10;42.90;;;;;;5085636;28;43119;-74
2022/01/25 12:19:11;;;;;;;;;;;15.20;43.00;;;;;;5085562;27;42949;-74
2022/01/25 12:21:51;;;;;;;;;;;15.20;43.00;;;;;;5067499;27;42907;-73
2022/01/25 12:24:21;;;;;;;;;;;15.30;43.10;;;;;;5072667;28;43750;-72
2022/01/25 12:27:02;;;;;;;;;;;15.30;43.10;;;;;;5076830;28;43127;-75
2022/01/25 12:29:29;;;;;;;;;;;15.40;43.70;;;;;;5066285;28;42845;-72
2022/01/25 12:31:54;;;;;;;;;;;15.40;43.00;;;;;;5066738;28;42874;-74
2022/01/25 12:34:23;;;;;;;;;;;15.50;43.70;;;;;;5065105;28;42902;-73
2022/01/25 12:36:49;;;;;;;;;;;15.40;43.00;;;;;;5065009;28;42923;-73
2022/01/25 12:39:16;;;;;;;;;;;15.50;43.10;;;;;;5074250;28;42985;-74
2022/01/25 12:41:41;;;;;;;;;;;15.50;43.30;;;;;;5083557;27;42892;-74
2022/01/25 12:44:07;;;;;;;;;;;15.50;43.20;;;;;;5076438;28;42961;-73
2022/01/25 12:46:35;;;;;;;;;;;15.50;43.30;;;;;;5074155;27;43340;-73
2022/01/25 12:49:03;;;;;;;;;;;15.60;43.20;;;;;;5076747;27;43000;-72
2022/01/25 12:51:30;;;;;;;;;;;15.60;43.50;;;;;;5083800;28;43086;-74
2022/01/25 12:53:57;;;;;;;;;;;15.60;43.50;;;;;;5084129;28;43003;-74
2022/01/25 12:56:25;;;;;;;;;;;15.70;43.70;;;;;;5083114;28;43049;-74
2022/01/25 12:58:51;;;;;;;;;;;15.70;43.70;;;;;;5084110;27;42741;-73
2022/01/25 13:01:18;;;;;;;;;;;15.70;43.70;;;;;;5084300;27;42787;-73
2022/01/25 13:03:45;;;;;;;;;;;15.70;43.60;;;;;;5084717;27;43473;-73
2022/01/25 13:06:11;;;;;;;;;;;15.70;43.80;;;;;;5074928;27;43057;-73
2022/01/25 13:08:41;;;;;;;;;;;15.70;43.80;;;;;;5083828;27;42994;-74
2022/01/25 13:11:15;;;;;;;;;;;15.70;43.80;;;;;;5084634;27;43170;-74
2022/01/25 13:13:56;;;;;;;;;;;15.80;43.70;;;;;;5084050;27;43056;-74
2022/01/25 13:16:41;;;;;;;;;;;15.80;43.70;;;;;;5084432;27;43044;-73
2022/01/25 13:19:07;;;;;;;;;;;15.80;43.70;;;;;;5081332;28;43683;-74
2022/01/25 13:21:36;;;;;;;;;;;15.80;43.80;;;;;;5085923;27;42939;-73
2022/01/25 13:24:06;;;;;;;;;;;15.80;43.90;;;;;;5083716;27;43439;-73
2022/01/25 13:26:38;;;;;;;;;;;15.80;43.90;;;;;;5075716;27;43130;-72
2022/01/25 13:30:39;;;;;;;;;;;15.90;43.90;;;;;;5074926;28;43675;-72
2022/01/25 13:32:08;;;;;;;;;;;15.90;44.10;;;;;;5078729;27;43000;-72
2022/01/25 13:34:36;;;;;;;;;;;15.90;43.90;;;;;;5076008;27;42893;-72
2022/01/25 13:37:02;;;;;;;;;;;15.90;44.00;;;;;;5073326;28;42881;-72
2022/01/25 13:39:28;;;;;;;;;;;16.00;44.10;;;;;;5072991;27;42902;-72
2022/01/25 13:42:02;;;;;;;;;;;15.90;44.60;;;;;;5075311;27;43067;-73
2022/01/25 13:47:12;;;;;;;;;;;16.00;44.10;;;;;;5076245;28;42811;-73
2022/01/25 13:49:38;;;;;;;;;;;16.00;44.70;;;;;;5076391;27;43084;-73
2022/01/25 13:52:04;;;;;;;;;;;16.00;44.40;;;;;;5077878;27;42987;-73
2022/01/25 13:54:30;;;;;;;;;;;16.00;44.50;;;;;;5079812;27;42976;-73
2022/01/25 13:56:56;;;;;;;;;;;16.00;44.80;;;;;;5079990;27;42888;-78
2022/01/25 13:59:24;;;;;;;;;;;16.00;45.20;;;;;;5080623;28;42918;-74
2022/01/25 14:01:50;;;;;;;;;;;16.00;45.60;;;;;;5062967;28;43121;-75
2022/01/25 14:04:16;;;;;;;;;;;16.00;45.70;;;;;;5074991;27;42946;-72
2022/01/25 14:06:43;;;;;;;;;;;16.10;45.90;;;;;;5084265;27;42949;-73
2022/01/25 14:09:12;;;;;;;;;;;16.10;46.00;;;;;;5084305;27;42948;-74
2022/01/25 14:22:47;;;;;;;;;;;16.10;46.20;;;;;;5078591;28;42811;-75
2022/01/25 14:25:13;;;;;;;;;;;16.10;46.20;;;;;;5086478;27;44467;-75
2022/01/25 14:27:50;;;;;;;;;;;16.10;46.20;;;;;;5087114;27;42958;-74
2022/01/25 14:30:16;;;;;;;;;;;16.10;46.10;;;;;;5086715;27;43026;-73
2022/01/25 14:32:42;;;;;;;;;;;16.10;46.00;;;;;;5086767;27;43114;-76
2022/01/25 14:35:09;;;;;;;;;;;16.20;46.10;;;;;;5087615;28;43381;-77
2022/01/25 14:37:39;;;;;;;;;;;16.20;46.00;;;;;;5086539;28;42960;-74
2022/01/25 14:40:10;;;;;;;;;;;16.20;46.00;;;;;;5086871;27;43606;-74
2022/01/25 14:42:36;;;;;;;;;;;16.20;45.90;;;;;;5086806;28;42863;-75
2022/01/25 14:45:03;;;;;;;;;;;16.20;45.90;;;;;;5085286;28;42950;-74
2022/01/25 14:47:37;;;;;;;;;;;16.20;45.90;;;;;;5078333;28;42864;-74
2022/01/25 14:50:04;;;;;;;;;;;16.20;45.80;;;;;;5077258;28;42917;-75
2022/01/25 14:52:29;;;;;;;;;;;16.20;45.70;;;;;;5077523;28;43379;-75
2022/01/25 14:54:55;;;;;;;;;;;16.20;45.70;;;;;;5077805;28;43039;-80
2022/01/25 14:57:26;;;;;;;;;;;16.30;45.70;;;;;;5076421;28;43000;-74
2022/01/25 14:59:51;;;;;;;;;;;16.30;45.70;;;;;;5074899;27;42946;-75
2022/01/25 15:02:19;;;;;;;;;;;16.30;45.60;;;;;;5077922;27;42909;-74
2022/01/25 15:04:45;;;;;;;;;;;16.30;45.50;;;;;;5077265;28;42929;-75
2022/01/25 15:07:13;;;;;;;;;;;16.30;45.40;;;;;;5074995;27;42972;-74
2022/01/25 15:09:50;;;;;;;;;;;16.30;46.00;;;;;;5074651;27;44047;-75
2022/01/25 15:12:16;;;;;;;;;;;16.30;45.40;;;;;;5078588;28;43041;-74
2022/01/25 15:14:52;;;;;;;;;;;16.30;45.30;;;;;;5078844;28;42984;-74
2022/01/25 15:17:18;;;;;;;;;;;16.30;45.30;;;;;;5083320;28;42969;-74
2022/01/25 15:19:43;;;;;;;;;;;16.30;45.20;;;;;;5086599;27;42987;-74
2022/01/25 15:22:09;;;;;;;;;;;16.30;45.20;;;;;;5083890;27;42944;-73
2022/01/25 15:24:36;;;;;;;;;;;16.40;45.30;;;;;;5076569;27;43133;-73
2022/01/25 15:27:06;;;;;;;;;;;16.40;45.20;;;;;;5076664;28;43095;-74
2022/01/25 15:29:32;;;;;;;;;;;16.40;45.20;;;;;;5077220;28;43066;-74
2022/01/25 15:31:58;;;;;;;;;;;16.40;45.90;;;;;;5078073;27;43069;-73
2022/01/25 15:34:25;;;;;;;;;;;16.40;45.10;;;;;;5086799;28;42939;-74
2022/01/25 15:39:53;;;;;;;;;;;16.00;44.80;;;;;;5061841;27;44196;-76
2022/01/25 15:42:22;;;;;;;;;;;16.40;44.90;;;;;;5083376;28;42944;-73
2022/01/25 15:44:50;;;;;;;;;;;16.50;45.00;;;;;;5085137;27;43541;-73
2022/01/25 15:47:19;;;;;;;;;;;16.40;44.90;;;;;;5085944;27;43002;-72
2022/01/25 15:49:48;;;;;;;;;;;16.40;44.90;;;;;;5084051;28;42847;-74
2022/01/25 15:52:15;;;;;;;;;;;16.40;44.90;;;;;;5086428;28;42999;-74
2022/01/25 15:54:44;;;;;;;;;;;16.50;44.80;;;;;;5085910;27;43495;-75
2022/01/25 15:57:10;;;;;;;;;;;16.50;44.80;;;;;;5085667;27;43045;-76
2022/01/25 15:59:36;;;;;;;;;;;16.50;44.80;;;;;;5088320;27;43450;-78
2022/01/25 16:02:12;;;;;;;;;;;16.50;44.80;;;;;;5086235;27;43062;-73
2022/01/25 16:04:42;;;;;;;;;;;16.50;44.80;;;;;;5084851;27;44113;-73
2022/01/25 16:07:09;;;;;;;;;;;16.50;44.70;;;;;;5086641;28;43067;-76
2022/01/25 16:09:37;;;;;;;;;;;16.50;44.80;;;;;;5075042;27;43020;-77
2022/01/25 16:12:03;;;;;;;;;;;16.50;45.20;;;;;;5077275;27;42933;-79
2022/01/25 16:14:29;;;;;;;;;;;16.50;44.60;;;;;;5075820;28;43035;-77
2022/01/25 16:16:54;;;;;;;;;;;16.60;44.80;;;;;;5079438;27;43226;-79
2022/01/25 16:19:20;;;;;;;;;;;16.60;44.70;;;;;;5084317;28;44675;-74
2022/01/25 16:21:45;;;;;;;;;;;16.60;44.70;;;;;;5088067;27;42842;-74
2022/01/25 16:24:11;;;;;;;;;;;16.60;44.60;;;;;;5086155;27;42832;-74